sensor_id;sensor_type;location;lat;lon;timestamp;pressure;altitude;pressure_sealevel;temperature;humidity
50380;BME280;37474;59.468;18.040;2022-08-16T00:02:29;100973.41;;;20.41;100.00
50380;BME280;37474;59.468;18.040;2022-08-16T00:04:57;100977.19;;;20.39;100.00
50380;BME280;37474;59.468;18.040;2022-08-16T00:07:28;100969.63;;;20.34;100.00
50380;BME280;37474;59.468;18.040;2022-08-16T00:09:59;100968.53;;;20.27;100.00
50380;BME280;37474;59.468;18.040;2022-08-16T00:12:27;100964.31;;;20.34;100.00
50380;BME280;37474;59.468;18.040;2022-08-16T00:14:59;100972.28;;;20.34;100.00
50380;BME280;37474;59.468;18.040;2022-08-16T00:17:29;100974.13;;;20.34;100.00
50380;BME280;37474;59.468;18.040;2022-08-16T00:20:20;100977.31;;;20.37;100.00
50380;BME280;37474;59.468;18.040;2022-08-16T00:22:53;100971.88;;;20.39;100.00
50380;BME280;37474;59.468;18.040;2022-08-16T00:25:25;100969.63;;;20.34;100.00
50380;BME280;37474;59.468;18.040;2022-08-16T00:28:15;100969.53;;;20.26;100.00
50380;BME280;37474;59.468;18.040;2022-08-16T00:30:47;100969.66;;;20.24;100.00
50380;BME280;37474;59.468;18.040;2022-08-16T00:33:16;100971.03;;;20.29;100.00
50380;BME280;37474;59.468;18.040;2022-08-16T00:35:44;100977.22;;;20.29;100.00
50380;BME280;37474;59.468;18.040;2022-08-16T00:38:18;100971.03;;;20.29;100.00
50380;BME280;37474;59.468;18.040;2022-08-16T00:41:06;100976.69;;;20.16;100.00
50380;BME280;37474;59.468;18.040;2022-08-16T00:43:36;100982.84;;;20.16;100.00
50380;BME280;37474;59.468;18.040;2022-08-16T00:46:12;100981.00;;;20.27;100.00
50380;BME280;37474;59.468;18.040;2022-08-16T00:49:05;100982.53;;;20.29;100.00
50380;BME280;37474;59.468;18.040;2022-08-16T00:51:46;100982.72;;;20.18;100.00
50380;BME280;37474;59.468;18.040;2022-08-16T00:54:26;100980.50;;;20.04;100.00
50380;BME280;37474;59.468;18.040;2022-08-16T00:56:55;100978.13;;;20.01;100.00
50380;BME280;37474;59.468;18.040;2022-08-16T00:59:29;100978.41;;;19.98;100.00
50380;BME280;37474;59.468;18.040;2022-08-16T01:02:00;100976.16;;;20.03;100.00
50380;BME280;37474;59.468;18.040;2022-08-16T01:04:52;100979.81;;;20.02;100.00
50380;BME280;37474;59.468;18.040;2022-08-16T01:07:37;100985.94;;;20.12;100.00
50380;BME280;37474;59.468;18.040;2022-08-16T01:10:20;100979.06;;;20.19;100.00
50380;BME280;37474;59.468;18.040;2022-08-16T01:12:59;100977.94;;;20.21;100.00
50380;BME280;37474;59.468;18.040;2022-08-16T01:15:35;100968.03;;;20.14;100.00
50380;BME280;37474;59.468;18.040;2022-08-16T01:18:11;100975.59;;;20.09;100.00
50380;BME280;37474;59.468;18.040;2022-08-16T01:21:24;100972.66;;;20.12;100.00
50380;BME280;37474;59.468;18.040;2022-08-16T01:24:12;100979.47;;;20.24;100.00
50380;BME280;37474;59.468;18.040;2022-08-16T01:27:09;100967.88;;;20.15;100.00
50380;BME280;37474;59.468;18.040;2022-08-16T01:29:45;100974.44;;;20.21;100.00
50380;BME280;37474;59.468;18.040;2022-08-16T01:32:28;100977.50;;;20.26;100.00
50380;BME280;37474;59.468;18.040;2022-08-16T01:35:01;100976.91;;;20.32;100.00
50380;BME280;37474;59.468;18.040;2022-08-16T01:37:37;100976.66;;;20.25;100.00
50380;BME280;37474;59.468;18.040;2022-08-16T01:40:11;100969.22;;;20.29;100.00
50380;BME280;37474;59.468;18.040;2022-08-16T01:42:44;100964.00;;;20.37;100.00
50380;BME280;37474;59.468;18.040;2022-08-16T01:45:19;100962.34;;;20.36;100.00
50380;BME280;37474;59.468;18.040;2022-08-16T01:47:50;100957.47;;;20.32;100.00
50380;BME280;37474;59.468;18.040;2022-08-16T01:50:19;100958.44;;;20.31;100.00
50380;BME280;37474;59.468;18.040;2022-08-16T01:53:11;100955.63;;;20.32;100.00
50380;BME280;37474;59.468;18.040;2022-08-16T01:55:40;100954.25;;;20.28;100.00
50380;BME280;37474;59.468;18.040;2022-08-16T01:58:22;100964.34;;;20.24;100.00
50380;BME280;37474;59.468;18.040;2022-08-16T02:00:52;100959.84;;;20.25;100.00
50380;BME280;37474;59.468;18.040;2022-08-16T02:03:20;100957.91;;;20.27;100.00
50380;BME280;37474;59.468;18.040;2022-08-16T02:05:54;100959.28;;;20.31;100.00
50380;BME280;37474;59.468;18.040;2022-08-16T02:08:24;100956.38;;;20.24;100.00
50380;BME280;37474;59.468;18.040;2022-08-16T02:11:04;100953.13;;;20.31;100.00
50380;BME280;37474;59.468;18.040;2022-08-16T02:13:36;100944.03;;;20.23;100.00
50380;BME280;37474;59.468;18.040;2022-08-16T02:16:09;100944.47;;;20.19;100.00
50380;BME280;37474;59.468;18.040;2022-08-16T02:18:44;100940.56;;;20.23;100.00
50380;BME280;37474;59.468;18.040;2022-08-16T02:21:16;100944.88;;;20.24;100.00
50380;BME280;37474;59.468;18.040;2022-08-16T02:23:57;100940.25;;;20.26;100.00
50380;BME280;37474;59.468;18.040;2022-08-16T02:26:28;100937.19;;;20.21;100.00
50380;BME280;37474;59.468;18.040;2022-08-16T02:29:00;100934.69;;;20.19;100.00
50380;BME280;37474;59.468;18.040;2022-08-16T02:31:30;100937.34;;;20.19;100.00
50380;BME280;37474;59.468;18.040;2022-08-16T02:34:19;100936.31;;;20.30;100.00
50380;BME280;37474;59.468;18.040;2022-08-16T02:37:02;100936.56;;;20.37;100.00
50380;BME280;37474;59.468;18.040;2022-08-16T02:39:32;100933.22;;;20.35;100.00
50380;BME280;37474;59.468;18.040;2022-08-16T02:42:03;100926.06;;;20.35;100.00
50380;BME280;37474;59.468;18.040;2022-08-16T02:44:31;100932.97;;;20.28;100.00
50380;BME280;37474;59.468;18.040;2022-08-16T02:47:01;100921.75;;;20.34;100.00
50380;BME280;37474;59.468;18.040;2022-08-16T02:49:33;100925.28;;;20.25;100.00
50380;BME280;37474;59.468;18.040;2022-08-16T02:52:21;100920.25;;;20.22;100.00
50380;BME280;37474;59.468;18.040;2022-08-16T02:54:55;100921.38;;;20.19;100.00
50380;BME280;37474;59.468;18.040;2022-08-16T02:57:24;100923.34;;;20.17;100.00
50380;BME280;37474;59.468;18.040;2022-08-16T02:59:53;100923.47;;;20.25;100.00
50380;BME280;37474;59.468;18.040;2022-08-16T03:02:23;100919.13;;;20.24;100.00
50380;BME280;37474;59.468;18.040;2022-08-16T03:04:57;100919.31;;;20.13;100.00
50380;BME280;37474;59.468;18.040;2022-08-16T03:07:29;100921.28;;;20.11;100.00
50380;BME280;37474;59.468;18.040;2022-08-16T03:10:04;100913.31;;;20.11;100.00
50380;BME280;37474;59.468;18.040;2022-08-16T03:12:39;100916.50;;;20.15;100.00
50380;BME280;37474;59.468;18.040;2022-08-16T03:15:22;100918.97;;;20.26;100.00
50380;BME280;37474;59.468;18.040;2022-08-16T03:17:53;100926.81;;;20.28;100.00
50380;BME280;37474;59.468;18.040;2022-08-16T03:20:21;100924.00;;;20.29;100.00
50380;BME280;37474;59.468;18.040;2022-08-16T03:22:58;100920.09;;;20.23;100.00
50380;BME280;37474;59.468;18.040;2022-08-16T03:25:29;100926.13;;;20.25;100.00
50380;BME280;37474;59.468;18.040;2022-08-16T03:28:13;100922.63;;;20.25;100.00
50380;BME280;37474;59.468;18.040;2022-08-16T03:30:43;100923.03;;;20.30;100.00
50380;BME280;37474;59.468;18.040;2022-08-16T03:33:13;100921.63;;;20.26;100.00
50380;BME280;37474;59.468;18.040;2022-08-16T03:35:43;100915.78;;;20.22;100.00
50380;BME280;37474;59.468;18.040;2022-08-16T03:38:16;100912.28;;;20.22;100.00
50380;BME280;37474;59.468;18.040;2022-08-16T03:41:01;100913.34;;;20.29;100.00
50380;BME280;37474;59.468;18.040;2022-08-16T03:43:54;100913.75;;;20.34;100.00
50380;BME280;37474;59.468;18.040;2022-08-16T03:46:23;100922.44;;;20.36;100.00
50380;BME280;37474;59.468;18.040;2022-08-16T03:49:15;100925.09;;;20.36;100.00
50380;BME280;37474;59.468;18.040;2022-08-16T03:51:43;100920.88;;;20.43;100.00
50380;BME280;37474;59.468;18.040;2022-08-16T03:54:19;100917.25;;;20.44;100.00
50380;BME280;37474;59.468;18.040;2022-08-16T03:56:48;100917.63;;;20.49;100.00
50380;BME280;37474;59.468;18.040;2022-08-16T03:59:27;100917.72;;;20.58;100.00
50380;BME280;37474;59.468;18.040;2022-08-16T04:01:56;100923.75;;;20.60;100.00
50380;BME280;37474;59.468;18.040;2022-08-16T04:04:29;100931.81;;;20.68;100.00
50380;BME280;37474;59.468;18.040;2022-08-16T04:06:59;100929.25;;;20.76;100.00
50380;BME280;37474;59.468;18.040;2022-08-16T04:09:29;100927.94;;;20.80;100.00
50380;BME280;37474;59.468;18.040;2022-08-16T04:12:04;100928.75;;;20.80;100.00
50380;BME280;37474;59.468;18.040;2022-08-16T04:14:55;100935.31;;;20.86;100.00
50380;BME280;37474;59.468;18.040;2022-08-16T04:17:25;100933.41;;;20.96;100.00
50380;BME280;37474;59.468;18.040;2022-08-16T04:19:55;100935.25;;;20.96;100.00
50380;BME280;37474;59.468;18.040;2022-08-16T04:22:25;100933.13;;;20.99;100.00
50380;BME280;37474;59.468;18.040;2022-08-16T04:24:56;100928.16;;;21.04;100.00
50380;BME280;37474;59.468;18.040;2022-08-16T04:27:26;100930.84;;;21.04;100.00
50380;BME280;37474;59.468;18.040;2022-08-16T04:29:59;100932.75;;;21.12;100.00
50380;BME280;37474;59.468;18.040;2022-08-16T04:32:29;100934.19;;;21.06;100.00
50380;BME280;37474;59.468;18.040;2022-08-16T04:34:57;100936.25;;;21.12;100.00
50380;BME280;37474;59.468;18.040;2022-08-16T04:37:31;100929.91;;;21.13;100.00
50380;BME280;37474;59.468;18.040;2022-08-16T04:40:13;100934.50;;;21.21;100.00
50380;BME280;37474;59.468;18.040;2022-08-16T04:42:47;100931.13;;;21.19;100.00
50380;BME280;37474;59.468;18.040;2022-08-16T04:45:18;100933.75;;;21.29;100.00
50380;BME280;37474;59.468;18.040;2022-08-16T04:48:03;100940.75;;;21.30;100.00
50380;BME280;37474;59.468;18.040;2022-08-16T04:50:32;100945.16;;;21.39;100.00
50380;BME280;37474;59.468;18.040;2022-08-16T04:53:01;100944.94;;;21.50;100.00
50380;BME280;37474;59.468;18.040;2022-08-16T04:55:30;100941.34;;;21.59;100.00
50380;BME280;37474;59.468;18.040;2022-08-16T04:58:07;100939.34;;;21.61;100.00
50380;BME280;37474;59.468;18.040;2022-08-16T05:00:56;100937.13;;;21.74;100.00
50380;BME280;37474;59.468;18.040;2022-08-16T05:03:29;100942.13;;;21.77;100.00
50380;BME280;37474;59.468;18.040;2022-08-16T05:05:58;100931.19;;;21.88;100.00
50380;BME280;37474;59.468;18.040;2022-08-16T05:08:32;100941.88;;;21.97;100.00
50380;BME280;37474;59.468;18.040;2022-08-16T05:11:03;100933.03;;;22.14;100.00
50380;BME280;37474;59.468;18.040;2022-08-16T05:13:37;100933.22;;;22.63;100.00
50380;BME280;37474;59.468;18.040;2022-08-16T05:16:12;100926.31;;;23.02;100.00
50380;BME280;37474;59.468;18.040;2022-08-16T05:18:45;100931.84;;;23.41;100.00
50380;BME280;37474;59.468;18.040;2022-08-16T05:21:15;100923.84;;;23.58;100.00
50380;BME280;37474;59.468;18.040;2022-08-16T05:23:46;100927.69;;;23.55;100.00
50380;BME280;37474;59.468;18.040;2022-08-16T05:26:24;100926.50;;;23.66;100.00
50380;BME280;37474;59.468;18.040;2022-08-16T05:28:54;100928.69;;;23.70;100.00
50380;BME280;37474;59.468;18.040;2022-08-16T05:33:56;100924.50;;;23.68;100.00
50380;BME280;37474;59.468;18.040;2022-08-16T05:36:29;100928.66;;;23.46;100.00
50380;BME280;37474;59.468;18.040;2022-08-16T05:39:05;100929.00;;;23.51;100.00
50380;BME280;37474;59.468;18.040;2022-08-16T05:41:38;100927.50;;;23.48;100.00
50380;BME280;37474;59.468;18.040;2022-08-16T05:44:11;100931.03;;;23.57;100.00
50380;BME280;37474;59.468;18.040;2022-08-16T05:46:55;100920.16;;;23.67;100.00
50380;BME280;37474;59.468;18.040;2022-08-16T05:49:27;100927.34;;;23.66;100.00
50380;BME280;37474;59.468;18.040;2022-08-16T05:52:08;100925.13;;;23.86;100.00
50380;BME280;37474;59.468;18.040;2022-08-16T05:54:42;100926.94;;;23.94;100.00
50380;BME280;37474;59.468;18.040;2022-08-16T05:57:28;100926.56;;;24.05;100.00
50380;BME280;37474;59.468;18.040;2022-08-16T06:00:02;100921.34;;;24.20;100.00
50380;BME280;37474;59.468;18.040;2022-08-16T06:02:39;100922.63;;;24.40;98.13
50380;BME280;37474;59.468;18.040;2022-08-16T06:05:08;100921.22;;;24.52;96.45
50380;BME280;37474;59.468;18.040;2022-08-16T06:07:42;100919.94;;;24.71;96.17
50380;BME280;37474;59.468;18.040;2022-08-16T06:10:23;100932.25;;;24.88;95.03
50380;BME280;37474;59.468;18.040;2022-08-16T06:12:58;100931.91;;;25.14;93.22
50380;BME280;37474;59.468;18.040;2022-08-16T06:15:26;100931.47;;;25.25;92.21
50380;BME280;37474;59.468;18.040;2022-08-16T06:17:58;100935.41;;;25.37;90.04
50380;BME280;37474;59.468;18.040;2022-08-16T06:20:29;100925.72;;;25.51;88.72
50380;BME280;37474;59.468;18.040;2022-08-16T06:23:04;100920.06;;;25.69;87.88
50380;BME280;37474;59.468;18.040;2022-08-16T06:25:45;100916.53;;;25.68;87.89
50380;BME280;37474;59.468;18.040;2022-08-16T06:28:19;100913.53;;;25.63;86.70
50380;BME280;37474;59.468;18.040;2022-08-16T06:31:04;100919.81;;;25.56;87.48
50380;BME280;37474;59.468;18.040;2022-08-16T06:33:39;100923.75;;;25.68;87.62
50380;BME280;37474;59.468;18.040;2022-08-16T06:36:11;100921.25;;;25.66;86.37
50380;BME280;37474;59.468;18.040;2022-08-16T06:38:40;100923.28;;;25.64;86.27
50380;BME280;37474;59.468;18.040;2022-08-16T06:41:22;100920.53;;;25.50;86.31
50380;BME280;37474;59.468;18.040;2022-08-16T06:43:53;100912.84;;;25.47;87.57
50380;BME280;37474;59.468;18.040;2022-08-16T06:46:24;100913.69;;;25.70;86.23
50380;BME280;37474;59.468;18.040;2022-08-16T06:48:59;100913.78;;;25.77;86.33
50380;BME280;37474;59.468;18.040;2022-08-16T06:51:33;100921.06;;;26.12;84.63
50380;BME280;37474;59.468;18.040;2022-08-16T06:54:14;100915.69;;;26.12;83.43
50380;BME280;37474;59.468;18.040;2022-08-16T06:56:45;100915.69;;;26.27;82.70
50380;BME280;37474;59.468;18.040;2022-08-16T06:59:19;100898.56;;;26.28;81.61
50380;BME280;37474;59.468;18.040;2022-08-16T07:01:53;100908.09;;;26.30;82.45
50380;BME280;37474;59.468;18.040;2022-08-16T07:04:26;100906.41;;;26.59;80.09
50380;BME280;37474;59.468;18.040;2022-08-16T07:06:59;100898.75;;;26.77;80.48
50380;BME280;37474;59.468;18.040;2022-08-16T07:09:28;100909.81;;;27.03;78.34
50380;BME280;37474;59.468;18.040;2022-08-16T07:12:02;100912.25;;;26.98;78.40
50380;BME280;37474;59.468;18.040;2022-08-16T07:14:33;100917.19;;;27.23;78.31
50380;BME280;37474;59.468;18.040;2022-08-16T07:17:04;100918.47;;;27.27;76.74
50380;BME280;37474;59.468;18.040;2022-08-16T07:19:41;100915.75;;;27.48;76.17
50380;BME280;37474;59.468;18.040;2022-08-16T07:22:29;100920.44;;;27.40;75.10
50380;BME280;37474;59.468;18.040;2022-08-16T07:25:17;100912.97;;;27.35;75.82
50380;BME280;37474;59.468;18.040;2022-08-16T07:27:48;100911.63;;;27.24;75.73
50380;BME280;37474;59.468;18.040;2022-08-16T07:30:17;100907.97;;;27.32;76.31
50380;BME280;37474;59.468;18.040;2022-08-16T07:33:08;100905.34;;;27.39;76.75
50380;BME280;37474;59.468;18.040;2022-08-16T07:35:43;100889.22;;;27.66;74.20
50380;BME280;37474;59.468;18.040;2022-08-16T07:38:17;100901.59;;;27.89;73.35
50380;BME280;37474;59.468;18.040;2022-08-16T07:40:59;100900.97;;;27.87;72.21
50380;BME280;37474;59.468;18.040;2022-08-16T07:43:36;100908.69;;;27.96;72.95
50380;BME280;37474;59.468;18.040;2022-08-16T07:46:07;100898.59;;;28.18;71.95
50380;BME280;37474;59.468;18.040;2022-08-16T07:48:59;100903.75;;;28.07;70.73
50380;BME280;37474;59.468;18.040;2022-08-16T07:51:30;100901.25;;;27.71;70.88
50380;BME280;37474;59.468;18.040;2022-08-16T07:54:07;100907.88;;;27.47;72.24
50380;BME280;37474;59.468;18.040;2022-08-16T07:56:46;100903.13;;;27.49;71.83
50380;BME280;37474;59.468;18.040;2022-08-16T07:59:17;100902.63;;;27.60;71.27
50380;BME280;37474;59.468;18.040;2022-08-16T08:01:44;100900.00;;;27.66;71.27
50380;BME280;37474;59.468;18.040;2022-08-16T08:04:12;100900.91;;;27.80;70.62
50380;BME280;37474;59.468;18.040;2022-08-16T08:06:44;100912.88;;;28.06;69.95
50380;BME280;37474;59.468;18.040;2022-08-16T08:09:16;100911.03;;;28.19;69.99
50380;BME280;37474;59.468;18.040;2022-08-16T08:11:46;100911.03;;;28.54;67.80
50380;BME280;37474;59.468;18.040;2022-08-16T08:14:27;100917.09;;;28.69;65.35
50380;BME280;37474;59.468;18.040;2022-08-16T08:16:56;100910.63;;;28.57;67.13
50380;BME280;37474;59.468;18.040;2022-08-16T08:19:27;100912.44;;;28.50;65.77
50380;BME280;37474;59.468;18.040;2022-08-16T08:21:58;100914.25;;;27.95;67.60
50380;BME280;37474;59.468;18.040;2022-08-16T08:24:31;100923.00;;;27.48;69.04
50380;BME280;37474;59.468;18.040;2022-08-16T08:27:04;100922.63;;;27.01;71.87
50380;BME280;37474;59.468;18.040;2022-08-16T08:29:35;100914.75;;;27.00;72.22
50380;BME280;37474;59.468;18.040;2022-08-16T08:32:08;100918.97;;;27.37;71.80
50380;BME280;37474;59.468;18.040;2022-08-16T08:34:56;100913.94;;;27.77;69.69
50380;BME280;37474;59.468;18.040;2022-08-16T08:37:34;100902.47;;;28.44;66.93
50380;BME280;37474;59.468;18.040;2022-08-16T08:40:21;100918.50;;;28.58;64.46
50380;BME280;37474;59.468;18.040;2022-08-16T08:42:54;100914.53;;;28.13;65.26
50380;BME280;37474;59.468;18.040;2022-08-16T08:45:36;100913.09;;;28.17;65.90
50380;BME280;37474;59.468;18.040;2022-08-16T08:48:14;100923.00;;;28.10;65.08
50380;BME280;37474;59.468;18.040;2022-08-16T08:51:00;100912.34;;;28.23;64.37
50380;BME280;37474;59.468;18.040;2022-08-16T08:53:32;100909.16;;;28.13;63.83
50380;BME280;37474;59.468;18.040;2022-08-16T08:56:04;100913.69;;;28.06;65.02
50380;BME280;37474;59.468;18.040;2022-08-16T08:58:51;100917.03;;;27.74;63.67
50380;BME280;37474;59.468;18.040;2022-08-16T09:01:30;100920.91;;;27.43;65.22
50380;BME280;37474;59.468;18.040;2022-08-16T09:04:09;100924.56;;;27.35;65.10
50380;BME280;37474;59.468;18.040;2022-08-16T09:06:40;100927.13;;;27.22;65.03
50380;BME280;37474;59.468;18.040;2022-08-16T09:09:11;100927.56;;;27.26;65.19
50380;BME280;37474;59.468;18.040;2022-08-16T09:11:43;100926.09;;;27.23;65.43
50380;BME280;37474;59.468;18.040;2022-08-16T09:14:20;100930.25;;;27.26;65.50
50380;BME280;37474;59.468;18.040;2022-08-16T09:16:52;100934.09;;;27.38;65.37
50380;BME280;37474;59.468;18.040;2022-08-16T09:19:29;100934.38;;;27.22;66.02
50380;BME280;37474;59.468;18.040;2022-08-16T09:21:59;100927.19;;;27.29;65.09
50380;BME280;37474;59.468;18.040;2022-08-16T09:24:29;100931.97;;;27.55;64.62
50380;BME280;37474;59.468;18.040;2022-08-16T09:27:19;100928.59;;;28.02;62.84
50380;BME280;37474;59.468;18.040;2022-08-16T09:29:51;100935.44;;;28.11;60.54
50380;BME280;37474;59.468;18.040;2022-08-16T09:32:26;100934.38;;;27.99;60.83
50380;BME280;37474;59.468;18.040;2022-08-16T09:34:57;100931.44;;;28.28;60.16
50380;BME280;37474;59.468;18.040;2022-08-16T09:37:25;100928.94;;;28.27;59.86
50380;BME280;37474;59.468;18.040;2022-08-16T09:39:59;100931.75;;;28.19;60.62
50380;BME280;37474;59.468;18.040;2022-08-16T09:42:49;100928.97;;;28.33;59.52
50380;BME280;37474;59.468;18.040;2022-08-16T09:45:26;100932.66;;;28.26;59.43
50380;BME280;37474;59.468;18.040;2022-08-16T09:48:01;100928.25;;;28.18;59.48
50380;BME280;37474;59.468;18.040;2022-08-16T09:50:32;100940.59;;;27.99;60.52
50380;BME280;37474;59.468;18.040;2022-08-16T09:53:08;100937.50;;;28.09;60.52
50380;BME280;37474;59.468;18.040;2022-08-16T09:55:47;100946.97;;;27.92;61.89
50380;BME280;37474;59.468;18.040;2022-08-16T09:58:16;100950.69;;;27.91;61.76
50380;BME280;37474;59.468;18.040;2022-08-16T10:01:07;100945.84;;;27.58;62.40
50380;BME280;37474;59.468;18.040;2022-08-16T10:03:38;100948.88;;;27.70;61.86
50380;BME280;37474;59.468;18.040;2022-08-16T10:06:28;100953.19;;;27.64;62.98
50380;BME280;37474;59.468;18.040;2022-08-16T10:09:00;100949.47;;;27.44;63.55
50380;BME280;37474;59.468;18.040;2022-08-16T10:11:36;100948.56;;;26.94;65.97
50380;BME280;37474;59.468;18.040;2022-08-16T10:14:44;100946.56;;;26.96;66.57
50380;BME280;37474;59.468;18.040;2022-08-16T10:17:14;100937.75;;;27.09;67.55
50380;BME280;37474;59.468;18.040;2022-08-16T10:19:44;100936.69;;;27.03;67.55
50380;BME280;37474;59.468;18.040;2022-08-16T10:22:16;100949.50;;;27.01;66.53
50380;BME280;37474;59.468;18.040;2022-08-16T10:24:48;100945.47;;;26.76;68.01
50380;BME280;37474;59.468;18.040;2022-08-16T10:27:28;100941.34;;;26.95;66.01
50380;BME280;37474;59.468;18.040;2022-08-16T10:30:16;100937.75;;;26.88;65.88
50380;BME280;37474;59.468;18.040;2022-08-16T10:32:57;100937.31;;;27.06;65.74
50380;BME280;37474;59.468;18.040;2022-08-16T10:35:25;100933.13;;;27.67;63.45
50380;BME280;37474;59.468;18.040;2022-08-16T10:37:58;100937.13;;;28.12;61.32
50380;BME280;37474;59.468;18.040;2022-08-16T10:40:27;100931.56;;;28.20;60.79
50380;BME280;37474;59.468;18.040;2022-08-16T10:42:58;100929.03;;;28.12;62.00
50380;BME280;37474;59.468;18.040;2022-08-16T10:45:33;100930.22;;;27.96;62.18
50380;BME280;37474;59.468;18.040;2022-08-16T10:48:04;100936.09;;;28.13;61.38
50380;BME280;37474;59.468;18.040;2022-08-16T10:50:53;100929.81;;;28.41;60.88
50380;BME280;37474;59.468;18.040;2022-08-16T10:53:24;100940.44;;;28.49;60.58
50380;BME280;37474;59.468;18.040;2022-08-16T10:55:59;100943.72;;;28.85;60.86
50380;BME280;37474;59.468;18.040;2022-08-16T10:58:29;100942.06;;;28.98;58.81
50380;BME280;37474;59.468;18.040;2022-08-16T11:01:01;100949.53;;;28.95;59.05
50380;BME280;37474;59.468;18.040;2022-08-16T11:03:48;100945.38;;;29.13;59.50
50380;BME280;37474;59.468;18.040;2022-08-16T11:06:20;100956.41;;;29.11;59.29
50380;BME280;37474;59.468;18.040;2022-08-16T11:08:55;100953.97;;;28.62;60.01
50380;BME280;37474;59.468;18.040;2022-08-16T11:11:45;100949.16;;;28.16;61.28
50380;BME280;37474;59.468;18.040;2022-08-16T11:14:35;100941.88;;;28.10;62.53
50380;BME280;37474;59.468;18.040;2022-08-16T11:17:05;100951.81;;;28.10;62.21
50380;BME280;37474;59.468;18.040;2022-08-16T11:19:37;100949.75;;;28.12;61.67
50380;BME280;37474;59.468;18.040;2022-08-16T11:22:28;100936.91;;;28.07;62.36
50380;BME280;37474;59.468;18.040;2022-08-16T11:25:15;100945.94;;;28.27;60.64
50380;BME280;37474;59.468;18.040;2022-08-16T11:28:06;100932.66;;;28.74;60.22
50380;BME280;37474;59.468;18.040;2022-08-16T11:30:36;100940.00;;;29.13;58.65
50380;BME280;37474;59.468;18.040;2022-08-16T11:33:08;100935.91;;;29.56;56.73
50380;BME280;37474;59.468;18.040;2022-08-16T11:35:40;100932.81;;;30.37;54.30
50380;BME280;37474;59.468;18.040;2022-08-16T11:38:32;100924.13;;;30.22;51.32
50380;BME280;37474;59.468;18.040;2022-08-16T11:41:20;100924.22;;;29.89;51.78
50380;BME280;37474;59.468;18.040;2022-08-16T11:43:52;100933.38;;;29.81;52.57
50380;BME280;37474;59.468;18.040;2022-08-16T11:46:21;100937.72;;;29.36;52.61
50380;BME280;37474;59.468;18.040;2022-08-16T11:49:11;100928.81;;;29.29;52.79
50380;BME280;37474;59.468;18.040;2022-08-16T11:51:40;100923.41;;;29.16;53.44
50380;BME280;37474;59.468;18.040;2022-08-16T11:54:09;100921.56;;;29.10;53.95
50380;BME280;37474;59.468;18.040;2022-08-16T11:56:47;100922.28;;;28.71;53.89
50380;BME280;37474;59.468;18.040;2022-08-16T11:59:22;100918.16;;;28.81;53.84
50380;BME280;37474;59.468;18.040;2022-08-16T12:01:57;100927.56;;;29.12;51.83
50380;BME280;37474;59.468;18.040;2022-08-16T12:04:49;100923.31;;;28.76;52.19
50380;BME280;37474;59.468;18.040;2022-08-16T12:07:19;100933.22;;;28.56;52.44
50380;BME280;37474;59.468;18.040;2022-08-16T12:09:52;100928.38;;;28.38;52.63
50380;BME280;37474;59.468;18.040;2022-08-16T12:12:22;100930.25;;;28.44;52.15
50380;BME280;37474;59.468;18.040;2022-08-16T12:14:56;100933.19;;;28.15;52.88
50380;BME280;37474;59.468;18.040;2022-08-16T12:17:27;100925.50;;;28.12;53.06
50380;BME280;37474;59.468;18.040;2022-08-16T12:19:58;100931.91;;;28.39;52.47
50380;BME280;37474;59.468;18.040;2022-08-16T12:22:26;100941.97;;;28.71;52.28
50380;BME280;37474;59.468;18.040;2022-08-16T12:24:54;100928.41;;;29.06;51.66
50380;BME280;37474;59.468;18.040;2022-08-16T12:27:26;100940.41;;;28.96;51.39
50380;BME280;37474;59.468;18.040;2022-08-16T12:29:56;100933.38;;;29.22;51.74
50380;BME280;37474;59.468;18.040;2022-08-16T12:32:24;100932.97;;;29.32;52.78
50380;BME280;37474;59.468;18.040;2022-08-16T12:35:15;100939.19;;;29.25;54.33
50380;BME280;37474;59.468;18.040;2022-08-16T12:37:44;100935.84;;;28.90;57.10
50380;BME280;37474;59.468;18.040;2022-08-16T12:40:27;100938.75;;;28.41;60.12
50380;BME280;37474;59.468;18.040;2022-08-16T12:42:59;100938.06;;;28.26;61.96
50380;BME280;37474;59.468;18.040;2022-08-16T12:45:33;100930.31;;;27.82;64.45
50380;BME280;37474;59.468;18.040;2022-08-16T12:48:03;100927.19;;;27.78;65.62
50380;BME280;37474;59.468;18.040;2022-08-16T12:51:03;100924.19;;;27.94;65.68
50380;BME280;37474;59.468;18.040;2022-08-16T12:53:45;100917.75;;;28.30;64.61
50380;BME280;37474;59.468;18.040;2022-08-16T12:56:18;100910.34;;;28.39;64.26
50380;BME280;37474;59.468;18.040;2022-08-16T12:58:46;100920.59;;;28.63;62.67
50380;BME280;37474;59.468;18.040;2022-08-16T13:01:22;100914.59;;;28.68;62.48
50380;BME280;37474;59.468;18.040;2022-08-16T13:03:52;100912.81;;;28.33;63.35
50380;BME280;37474;59.468;18.040;2022-08-16T13:06:47;100905.63;;;28.13;63.21
50380;BME280;37474;59.468;18.040;2022-08-16T13:09:18;100904.13;;;27.97;63.93
50380;BME280;37474;59.468;18.040;2022-08-16T13:11:59;100903.75;;;28.13;63.42
50380;BME280;37474;59.468;18.040;2022-08-16T13:14:32;100902.28;;;28.04;62.56
50380;BME280;37474;59.468;18.040;2022-08-16T13:17:04;100903.25;;;27.90;62.15
50380;BME280;37474;59.468;18.040;2022-08-16T13:19:33;100886.00;;;27.78;63.41
50380;BME280;37474;59.468;18.040;2022-08-16T13:22:25;100894.03;;;28.06;62.05